createdAt,value
2023-04-05T00:00:42.624Z,93.91
2023-04-05T00:01:42.402Z,94.01
2023-04-05T00:02:42.446Z,94.22
2023-04-05T00:03:42.354Z,94.74
2023-04-05T00:04:42.370Z,94.85
2023-04-05T00:05:42.221Z,94.12
2023-04-05T00:06:42.175Z,94.89
2023-04-05T00:07:42.135Z,94.79
2023-04-05T00:08:42.164Z,94.37
2023-04-05T00:09:42.057Z,94.26
2023-04-05T00:10:42.146Z,93.88
2023-04-05T00:11:41.986Z,94.73
2023-04-05T00:12:41.952Z,94.93
2023-04-05T00:13:41.976Z,95.56
2023-04-05T00:14:41.868Z,95.88
2023-04-05T00:15:41.838Z,95.88
2023-04-05T00:16:41.811Z,96.24
2023-04-05T00:17:41.765Z,95.78
2023-04-05T00:18:41.711Z,96.09
2023-04-05T00:19:41.720Z,96.24
2023-04-05T00:20:41.936Z,96.45
2023-04-05T00:21:41.589Z,96.09
2023-04-05T00:22:41.545Z,95.67
2023-04-05T00:23:41.506Z,96.09
2023-04-05T00:24:41.465Z,95.88
2023-04-05T00:25:41.471Z,96.03
2023-04-05T00:26:41.393Z,96.41
2023-04-05T00:27:41.352Z,95.88
2023-04-05T00:28:41.326Z,96.41
2023-04-05T00:29:41.279Z,95.67
2023-04-05T00:30:41.361Z,96.09
2023-04-05T00:31:41.322Z,95.98
2023-04-05T00:32:41.232Z,95.78
2023-04-05T00:33:41.119Z,95.98
2023-04-05T00:34:41.075Z,95.98
2023-04-05T00:35:41.071Z,96.24
2023-04-05T00:36:41.012Z,95.88
2023-04-05T00:37:41.024Z,96.61
2023-04-05T00:38:40.914Z,96.41
2023-04-05T00:39:40.892Z,96.72
2023-04-05T00:40:41.050Z,96.41
2023-04-05T00:41:40.798Z,96.41
2023-04-05T00:42:40.768Z,96.55
2023-04-05T00:43:40.794Z,96.19
2023-04-05T00:44:40.677Z,95.56
2023-04-05T00:45:40.660Z,95.25
2023-04-05T00:46:40.603Z,95.88
2023-04-05T00:47:40.596Z,95.67
2023-04-05T00:48:40.526Z,95.72
2023-04-05T00:49:40.540Z,95.61
2023-04-05T00:50:40.575Z,95.61
2023-04-05T00:51:40.401Z,96.24
2023-04-05T00:52:40.375Z,96.24
2023-04-05T00:53:40.312Z,96.13
2023-04-05T00:54:40.281Z,95.82
2023-04-05T00:55:40.316Z,96.24
2023-04-05T00:56:40.242Z,96.03
2023-04-05T00:57:40.161Z,96.24
2023-04-05T00:58:40.130Z,96.24
2023-04-05T00:59:40.096Z,96.66
2023-04-05T01:00:40.200Z,96.45
2023-04-05T01:01:40.509Z,96.59
2023-04-05T01:02:39.989Z,96.55
2023-04-05T01:03:39.923Z,96.66
2023-04-05T01:04:39.921Z,97.29
2023-04-05T01:05:39.836Z,97.50
2023-04-05T01:06:39.801Z,96.97
2023-04-05T01:07:39.824Z,96.55
2023-04-05T01:08:39.734Z,96.97
2023-04-05T01:09:39.705Z,96.97
2023-04-05T01:10:39.980Z,97.71
2023-04-05T01:11:39.618Z,97.75
2023-04-05T01:12:39.575Z,97.60
2023-04-05T01:13:39.609Z,97.33
2023-04-05T01:14:39.497Z,97.02
2023-04-05T01:15:39.460Z,97.12
2023-04-05T01:16:39.407Z,97.12
2023-04-05T01:17:39.520Z,97.33
2023-04-05T01:18:39.338Z,97.64
2023-04-05T01:19:39.355Z,97.02
2023-04-05T01:20:39.466Z,97.17
2023-04-05T01:21:39.223Z,97.17
2023-04-05T01:22:39.170Z,97.38
2023-04-05T01:23:39.134Z,97.38
2023-04-05T01:24:39.101Z,97.80
2023-04-05T01:25:39.112Z,97.38
2023-04-05T01:26:39.012Z,97.48
2023-04-05T01:27:38.976Z,98.00
2023-04-05T01:28:38.945Z,98.11
2023-04-05T01:29:38.895Z,98.00
2023-04-05T01:30:39.137Z,98.16
2023-04-05T01:31:38.979Z,98.00
2023-04-05T01:32:38.803Z,98.43
2023-04-05T01:33:38.740Z,98.85
2023-04-05T01:34:38.683Z,98.64
2023-04-05T01:35:38.685Z,98.43
2023-04-05T01:36:38.605Z,98.22
2023-04-05T01:37:38.622Z,98.11
2023-04-05T01:38:38.527Z,97.69
2023-04-05T01:39:38.482Z,97.69
2023-04-05T01:40:38.731Z,97.90
2023-04-05T01:41:38.401Z,97.80
2023-04-05T01:42:38.391Z,97.38
2023-04-05T01:43:38.385Z,97.38
2023-04-05T01:44:38.301Z,97.06
2023-04-05T01:45:38.244Z,97.38
2023-04-05T01:46:38.245Z,97.06
2023-04-05T01:47:38.195Z,97.69
2023-04-05T01:48:38.135Z,97.80
2023-04-05T01:49:38.142Z,98.11
2023-04-05T01:50:38.082Z,98.00
2023-04-05T01:51:38.007Z,98.22
2023-04-05T01:52:37.977Z,98.00
2023-04-05T01:53:37.944Z,98.26
2023-04-05T01:54:37.946Z,98.05
2023-04-05T01:55:37.856Z,97.94
2023-04-05T01:56:37.815Z,98.05
2023-04-05T01:57:37.765Z,97.94
2023-04-05T01:58:37.837Z,98.16
2023-04-05T01:59:37.699Z,97.74
2023-04-05T02:00:37.711Z,97.31
2023-04-05T02:01:37.613Z,97.53
2023-04-05T02:02:37.697Z,96.94
2023-04-05T02:03:37.707Z,97.36
2023-04-05T02:04:37.498Z,96.73
2023-04-05T02:05:37.478Z,96.20
2023-04-05T02:06:37.420Z,95.57
2023-04-05T02:07:37.375Z,95.57
2023-04-05T02:08:37.347Z,95.57
2023-04-05T02:09:37.344Z,95.57
2023-04-05T02:10:37.250Z,94.94
2023-04-05T02:11:37.214Z,95.04
2023-04-05T02:12:37.180Z,94.84
2023-04-05T02:13:37.125Z,95.57
2023-04-05T02:14:37.091Z,95.74
2023-04-05T02:15:37.112Z,95.21
2023-04-05T02:16:37.023Z,95.26
2023-04-05T02:17:36.996Z,95.10
2023-04-05T02:18:36.936Z,95.57
2023-04-05T02:19:36.893Z,95.78
2023-04-05T02:20:36.858Z,95.21
2023-04-05T02:21:36.878Z,95.42
2023-04-05T02:22:36.787Z,95.74
2023-04-05T02:23:36.733Z,95.32
2023-04-05T02:24:36.686Z,95.64
2023-04-05T02:25:36.652Z,95.53
2023-04-05T02:26:36.608Z,95.04
2023-04-05T02:27:36.652Z,95.00
2023-04-05T02:28:36.538Z,95.57
2023-04-05T02:29:36.511Z,95.57
2023-04-05T02:30:36.481Z,95.15
2023-04-05T02:31:36.466Z,95.68
2023-04-05T02:32:36.485Z,96.10
2023-04-05T02:33:36.342Z,96.20
2023-04-05T02:34:36.286Z,95.89
2023-04-05T02:35:36.295Z,96.41
2023-04-05T02:36:36.216Z,96.14
2023-04-05T02:37:36.174Z,96.51
2023-04-05T02:38:36.228Z,96.56
2023-04-05T02:39:36.096Z,96.73
2023-04-05T02:40:36.099Z,97.19
2023-04-05T02:41:36.030Z,96.67
2023-04-05T02:42:35.997Z,96.56
2023-04-05T02:43:35.995Z,97.09
2023-04-05T02:44:35.896Z,96.98
2023-04-05T02:45:35.881Z,97.67
2023-04-05T02:46:35.810Z,97.82
2023-04-05T02:47:35.864Z,97.72
2023-04-05T02:48:35.722Z,97.30
2023-04-05T02:49:37.608Z,97.41
2023-04-05T02:50:35.660Z,97.66
2023-04-05T02:51:35.625Z,98.35
2023-04-05T02:52:35.578Z,98.14
2023-04-05T02:53:35.542Z,97.93
2023-04-05T02:54:35.485Z,98.46
2023-04-05T02:55:35.503Z,98.88
2023-04-05T02:56:35.410Z,98.77
2023-04-05T02:57:35.390Z,98.66
2023-04-05T02:58:35.329Z,98.56
2023-04-05T02:59:35.285Z,98.98
2023-04-05T03:00:35.309Z,98.56
2023-04-05T03:01:35.212Z,98.46
2023-04-05T03:02:35.232Z,98.50
2023-04-05T03:03:35.186Z,98.46
2023-04-05T03:04:35.084Z,98.71
2023-04-05T03:05:35.052Z,99.24
2023-04-05T03:06:35.061Z,99.13
2023-04-05T03:07:34.968Z,99.34
2023-04-05T03:08:34.920Z,99.13
2023-04-05T03:09:34.895Z,98.92
2023-04-05T03:10:34.880Z,98.92
2023-04-05T03:11:34.811Z,98.33
2023-04-05T03:12:34.818Z,98.92
2023-04-05T03:13:34.721Z,99.13
2023-04-05T03:14:34.688Z,99.24
2023-04-05T03:15:34.660Z,99.24
2023-04-05T03:16:34.691Z,99.13
2023-04-05T03:17:34.600Z,99.18
2023-04-05T03:18:34.583Z,99.13
2023-04-05T03:19:34.504Z,99.24
2023-04-05T03:20:34.446Z,99.55
2023-04-05T03:21:34.402Z,99.02
2023-04-05T03:22:34.401Z,99.44
2023-04-05T03:23:34.385Z,99.87
2023-04-05T03:24:34.283Z,99.76
2023-04-05T03:25:34.246Z,99.66
2023-04-05T03:26:34.199Z,99.76
2023-04-05T03:27:34.182Z,99.99
2023-04-05T03:28:34.132Z,99.76
2023-04-05T03:29:34.142Z,99.24
2023-04-05T03:30:34.037Z,99.02
2023-04-05T03:31:34.073Z,99.66
2023-04-05T03:32:33.979Z,99.34
2023-04-05T03:33:33.921Z,99.13
2023-04-05T03:34:33.937Z,99.24
2023-04-05T03:35:33.913Z,99.24
2023-04-05T03:36:33.796Z,99.44
2023-04-05T03:37:33.849Z,99.61
2023-04-05T03:38:33.714Z,99.55
2023-04-05T03:39:33.675Z,99.40
2023-04-05T03:40:33.684Z,99.44
2023-04-05T03:41:33.592Z,99.99
2023-04-05T03:42:33.569Z,99.82
2023-04-05T03:43:33.518Z,99.72
2023-04-05T03:44:33.473Z,99.72
2023-04-05T03:45:33.454Z,99.51
2023-04-05T03:46:33.568Z,99.93
2023-04-05T03:47:33.444Z,99.61
2023-04-05T03:48:33.315Z,99.72
2023-04-05T03:49:33.287Z,99.88
2023-04-05T03:50:33.233Z,99.88
2023-04-05T03:51:33.198Z,99.99
2023-04-05T03:52:33.201Z,99.99
2023-04-05T03:53:33.184Z,99.95
2023-04-05T03:54:33.081Z,99.95
2023-04-05T03:55:33.047Z,99.99
2023-04-05T03:56:33.000Z,99.16
2023-04-05T03:57:32.961Z,99.63
2023-04-05T03:58:33.785Z,99.27
2023-04-05T03:59:32.924Z,99.48
2023-04-05T04:00:32.842Z,99.58
2023-04-05T04:01:32.791Z,99.16
2023-04-05T04:02:32.843Z,99.05
2023-04-05T04:03:32.715Z,98.95
2023-04-05T04:04:32.764Z,99.16
2023-04-05T04:05:32.642Z,98.64
2023-04-05T04:06:32.713Z,98.85
2023-04-05T04:07:32.575Z,98.22
2023-04-05T04:08:32.513Z,98.32
2023-04-05T04:09:32.477Z,98.11
2023-04-05T04:10:32.434Z,97.90
2023-04-05T04:11:32.457Z,98.28
2023-04-05T04:12:32.348Z,98.17
2023-04-05T04:13:32.319Z,97.86
2023-04-05T04:14:32.363Z,97.96
2023-04-05T04:15:32.242Z,97.86
2023-04-05T04:16:32.299Z,98.02
2023-04-05T04:17:32.208Z,97.86
2023-04-05T04:18:32.114Z,97.81
2023-04-05T04:19:32.082Z,97.71
2023-04-05T04:20:32.032Z,96.66
2023-04-05T04:21:32.052Z,97.66
2023-04-05T04:22:31.964Z,96.93
2023-04-05T04:23:31.926Z,96.61
2023-04-05T04:24:31.889Z,96.51
2023-04-05T04:25:31.839Z,96.41
2023-04-05T04:26:31.801Z,96.19
2023-04-05T04:27:31.820Z,96.09
2023-04-05T04:28:31.734Z,96.25
2023-04-05T04:29:31.687Z,95.84
2023-04-05T04:30:31.683Z,95.84
2023-04-05T04:31:31.616Z,95.31
2023-04-05T04:32:31.572Z,95.52
2023-04-05T04:33:31.580Z,95.42
2023-04-05T04:34:31.489Z,96.04
2023-04-05T04:35:31.489Z,96.04
2023-04-05T04:36:31.409Z,96.04
2023-04-05T04:37:31.376Z,95.90
2023-04-05T04:38:31.324Z,95.84
2023-04-05T04:39:31.356Z,96.04
2023-04-05T04:40:31.262Z,95.79
2023-04-05T04:41:31.206Z,95.94
2023-04-05T04:42:31.174Z,95.94
2023-04-05T04:43:31.126Z,95.94
2023-04-05T04:44:31.114Z,95.94
2023-04-05T04:45:31.138Z,95.73
2023-04-05T04:46:31.016Z,95.21
2023-04-05T04:47:31.002Z,95.31
2023-04-05T04:48:30.931Z,95.62
2023-04-05T04:49:30.897Z,95.27
2023-04-05T04:50:30.849Z,95.42
2023-04-05T04:51:30.876Z,94.95
2023-04-05T04:52:30.777Z,95.37
2023-04-05T04:53:30.751Z,95.37
2023-04-05T04:54:30.693Z,95.06
2023-04-05T04:55:30.662Z,95.17
2023-04-05T04:56:30.648Z,94.85
2023-04-05T04:57:30.632Z,95.06
2023-04-05T04:58:30.542Z,95.06
2023-04-05T04:59:30.581Z,95.37
2023-04-05T05:00:30.465Z,95.48
2023-04-05T05:01:30.522Z,94.85
2023-04-05T05:02:31.372Z,95.31
2023-04-05T05:03:30.343Z,95.37
2023-04-05T05:04:30.438Z,94.85
2023-04-05T05:05:30.287Z,95.27
2023-04-05T05:06:30.325Z,95.48
2023-04-05T05:07:30.187Z,95.58
2023-04-05T05:08:30.161Z,95.17
2023-04-05T05:09:30.134Z,95.17
2023-04-05T05:10:30.072Z,95.12
2023-04-05T05:11:30.197Z,94.60
2023-04-05T05:12:30.054Z,94.38
2023-04-05T05:13:29.965Z,94.38
2023-04-05T05:14:29.922Z,94.18
2023-04-05T05:15:29.893Z,94.28
2023-04-05T05:16:29.868Z,93.97
2023-04-05T05:17:29.824Z,94.49
2023-04-05T05:18:29.832Z,94.49
2023-04-05T05:19:29.721Z,94.49
2023-04-05T05:20:29.680Z,94.49
2023-04-05T05:21:35.304Z,94.03
2023-04-05T05:22:29.607Z,94.70
2023-04-05T05:23:29.584Z,94.18
2023-04-05T05:24:29.589Z,93.65
2023-04-05T05:25:30.106Z,93.87
2023-04-05T05:26:29.440Z,94.28
2023-04-05T05:27:29.421Z,94.28
2023-04-05T05:28:29.374Z,94.18
2023-04-05T05:29:29.338Z,93.87
2023-04-05T05:30:29.352Z,94.18
2023-04-05T05:31:29.349Z,94.03
2023-04-05T05:32:29.241Z,94.24
2023-04-05T05:33:29.184Z,94.28
2023-04-05T05:34:29.191Z,94.24
2023-04-05T05:35:29.115Z,94.24
2023-04-05T05:36:29.110Z,94.03
2023-04-05T05:37:29.005Z,94.24
2023-04-05T05:38:28.977Z,93.99
2023-04-05T05:39:28.936Z,93.46
2023-04-05T05:40:28.914Z,93.88
2023-04-05T05:41:28.914Z,94.72
2023-04-05T05:42:28.827Z,93.88
2023-04-05T05:43:28.777Z,93.95
2023-04-05T05:44:28.755Z,93.74
2023-04-05T05:45:28.714Z,93.17
2023-04-05T05:46:28.750Z,93.27
2023-04-05T05:47:28.698Z,93.17
2023-04-05T05:48:28.583Z,92.96
2023-04-05T05:49:28.535Z,93.13
2023-04-05T05:50:28.516Z,92.08
2023-04-05T05:51:28.474Z,92.19
2023-04-05T05:52:28.433Z,92.29
2023-04-05T05:53:28.553Z,91.77
2023-04-05T05:54:28.362Z,91.77
2023-04-05T05:55:28.321Z,91.41
2023-04-05T05:56:28.281Z,90.78
2023-04-05T05:57:28.236Z,90.85
2023-04-05T05:58:28.255Z,90.64
2023-04-05T05:59:28.198Z,90.33
2023-04-05T06:00:28.119Z,90.12
2023-04-05T06:01:28.260Z,90.12
2023-04-05T06:02:28.081Z,90.18
2023-04-05T06:03:28.087Z,89.87
2023-04-05T06:04:28.119Z,89.24
2023-04-05T06:05:27.937Z,89.45
2023-04-05T06:06:27.893Z,89.31
2023-04-05T06:07:27.871Z,89.72
2023-04-05T06:08:27.867Z,89.10
2023-04-05T06:09:27.778Z,88.78
2023-04-05T06:10:27.803Z,88.57
2023-04-05T06:11:27.706Z,88.22
2023-04-05T06:12:28.702Z,88.43
2023-04-05T06:13:27.618Z,88.08
2023-04-05T06:14:27.589Z,87.76
2023-04-05T06:15:27.560Z,87.35
2023-04-05T06:16:27.591Z,86.89
2023-04-05T06:17:27.512Z,86.68
2023-04-05T06:18:27.456Z,86.47
2023-04-05T06:19:27.413Z,86.54
2023-04-05T06:20:27.369Z,86.85
2023-04-05T06:21:27.321Z,86.43
2023-04-05T06:22:27.342Z,86.02
2023-04-05T06:23:27.241Z,85.98
2023-04-05T06:24:27.221Z,85.88
2023-04-05T06:25:27.204Z,86.08
2023-04-05T06:26:27.144Z,85.42
2023-04-05T06:27:27.098Z,85.42
2023-04-05T06:28:27.129Z,85.17
2023-04-05T06:29:27.024Z,85.49
2023-04-05T06:30:26.971Z,84.96
2023-04-05T06:31:27.005Z,84.44
2023-04-05T06:32:26.933Z,84.55
2023-04-05T06:33:26.884Z,84.41
2023-04-05T06:34:26.993Z,83.99
2023-04-05T06:35:26.808Z,83.33
2023-04-05T06:36:27.670Z,82.91
2023-04-05T06:37:26.717Z,83.01
2023-04-05T06:38:26.679Z,82.91
2023-04-05T06:39:26.708Z,82.70
2023-04-05T06:40:26.608Z,83.01
2023-04-05T06:41:26.578Z,82.81
2023-04-05T06:42:27.898Z,82.35
2023-04-05T06:43:26.494Z,82.15
2023-04-05T06:44:26.462Z,81.28
2023-04-05T06:45:26.498Z,80.80
2023-04-05T06:46:26.492Z,81.07
2023-04-05T06:47:26.399Z,81.07
2023-04-05T06:48:26.307Z,80.87
2023-04-05T06:49:26.287Z,81.07
2023-04-05T06:50:26.243Z,80.83
2023-04-05T06:51:26.322Z,80.58
2023-04-05T06:52:26.169Z,80.79
2023-04-05T06:53:26.192Z,80.68
2023-04-05T06:54:26.101Z,81.06
2023-04-05T06:55:26.068Z,80.85
2023-04-05T06:56:26.036Z,81.06
2023-04-05T06:57:26.042Z,80.71
2023-04-05T06:58:25.953Z,80.40
2023-04-05T06:59:25.965Z,79.99
2023-04-05T07:00:25.877Z,80.16
2023-04-05T07:01:25.851Z,79.33
2023-04-05T07:02:25.821Z,78.81
2023-04-05T07:03:25.825Z,79.23
2023-04-05T07:04:25.770Z,78.99
2023-04-05T07:05:25.711Z,79.30
2023-04-05T07:06:25.680Z,79.40
2023-04-05T07:07:25.630Z,79.77
2023-04-05T07:08:25.595Z,79.50
2023-04-05T07:09:25.634Z,78.74
2023-04-05T07:10:25.522Z,78.43
2023-04-05T07:11:25.480Z,78.53
2023-04-05T07:12:25.446Z,78.74
2023-04-05T07:13:25.403Z,78.85
2023-04-05T07:14:25.369Z,78.60
2023-04-05T07:15:25.407Z,79.36
2023-04-05T07:16:25.331Z,78.81
2023-04-05T07:17:25.280Z,78.56
2023-04-05T07:18:25.230Z,77.94
2023-04-05T07:19:25.357Z,77.74
2023-04-05T07:20:25.165Z,78.77
2023-04-05T07:21:25.174Z,78.67
2023-04-05T07:22:25.091Z,78.67
2023-04-05T07:23:25.052Z,77.64
2023-04-05T07:24:25.030Z,75.46
2023-04-05T07:25:24.985Z,74.57
2023-04-05T07:26:24.958Z,74.84
2023-04-05T07:27:24.967Z,73.81
2023-04-05T07:28:24.882Z,74.67
2023-04-05T07:29:24.850Z,75.09
2023-04-05T07:30:24.803Z,73.74
2023-04-05T07:31:24.783Z,73.74
2023-04-05T07:32:24.934Z,73.94
2023-04-05T07:33:24.745Z,73.60
2023-04-05T07:34:24.672Z,72.60
2023-04-05T07:35:24.629Z,73.64
2023-04-05T07:36:24.854Z,73.60
2023-04-05T07:37:24.612Z,73.08
2023-04-05T07:38:24.532Z,72.33
2023-04-05T07:39:24.498Z,72.12
2023-04-05T07:40:24.454Z,72.33
2023-04-05T07:41:24.424Z,71.71
2023-04-05T07:42:24.448Z,71.64
2023-04-05T07:43:24.357Z,71.84
2023-04-05T07:44:24.316Z,73.29
2023-04-05T07:45:25.378Z,73.81
2023-04-05T07:46:24.269Z,75.22
2023-04-05T07:47:24.395Z,75.32
2023-04-05T07:48:24.241Z,75.29
2023-04-05T07:49:24.132Z,75.19
2023-04-05T07:50:24.103Z,75.50
2023-04-05T07:51:24.088Z,75.09
2023-04-05T07:52:24.034Z,75.29
2023-04-05T07:53:23.999Z,76.74
2023-04-05T07:54:24.061Z,76.53
2023-04-05T07:55:23.934Z,75.81
2023-04-05T07:56:23.886Z,76.43
2023-04-05T07:57:23.860Z,76.74
2023-04-05T07:58:23.822Z,75.57
2023-04-05T07:59:23.877Z,75.36
2023-04-05T08:00:23.771Z,75.12
2023-04-05T08:01:23.715Z,74.60
2023-04-05T08:02:23.675Z,73.67
2023-04-05T08:03:23.691Z,73.64
2023-04-05T08:04:23.614Z,72.40
2023-04-05T08:05:23.743Z,71.98
2023-04-05T08:06:23.543Z,72.61
2023-04-05T08:07:23.554Z,73.22
2023-04-05T08:08:23.468Z,73.33
2023-04-05T08:09:23.437Z,73.12
2023-04-05T08:10:23.410Z,72.91
2023-04-05T08:11:23.366Z,72.40
2023-04-05T08:12:23.378Z,73.36
2023-04-05T08:13:23.295Z,72.88
2023-04-05T08:14:23.278Z,73.60
2023-04-05T08:15:23.230Z,73.74
2023-04-05T08:16:23.216Z,72.33
2023-04-05T08:17:23.228Z,72.02
2023-04-05T08:18:23.120Z,72.25
2023-04-05T08:19:23.075Z,72.33
2023-04-05T08:20:23.070Z,72.36
2023-04-05T08:21:23.028Z,72.05
2023-04-05T08:22:23.072Z,72.56
2023-04-05T08:23:22.945Z,72.77
2023-04-05T08:24:23.912Z,73.71
2023-04-05T08:25:22.867Z,73.50
2023-04-05T08:26:22.836Z,71.60
2023-04-05T08:27:22.825Z,71.01
2023-04-05T08:28:22.808Z,70.70
2023-04-05T08:29:22.730Z,71.33
2023-04-05T08:30:22.688Z,70.77
2023-04-05T08:31:22.662Z,70.05
2023-04-05T08:32:22.624Z,71.29
2023-04-05T08:33:22.582Z,70.57
2023-04-05T08:34:22.588Z,69.43
2023-04-05T08:35:22.525Z,69.12
2023-04-05T08:36:22.463Z,69.53
2023-04-05T08:37:22.426Z,69.81
2023-04-05T08:38:22.409Z,69.40
2023-04-05T08:39:22.359Z,68.98
2023-04-05T08:40:22.378Z,68.40
2023-04-05T08:41:22.300Z,68.05
2023-04-05T08:42:22.261Z,67.12
2023-04-05T08:43:22.220Z,67.15
2023-04-05T08:44:22.188Z,67.12
2023-04-05T08:45:22.140Z,68.26
2023-04-05T08:46:22.243Z,68.15
2023-04-05T08:47:22.130Z,66.99
2023-04-05T08:48:22.034Z,66.88
2023-04-05T08:49:22.008Z,67.09
2023-04-05T08:50:21.969Z,68.19
2023-04-05T08:51:21.961Z,67.88
2023-04-05T08:52:21.935Z,67.88
2023-04-05T08:53:21.855Z,65.82
2023-04-05T08:54:21.824Z,66.00
2023-04-05T08:55:21.810Z,64.37
2023-04-05T08:56:21.752Z,65.20
2023-04-05T08:57:21.742Z,65.51
2023-04-05T09:03:20.609Z,64.76
2023-04-05T09:03:57.793Z,64.76
2023-04-05T09:04:57.747Z,64.89
2023-04-05T09:05:57.723Z,64.55
2023-04-05T09:06:57.696Z,64.17
2023-04-05T09:07:57.644Z,63.93
2023-04-05T09:08:57.661Z,64.76
2023-04-05T09:09:57.565Z,64.55
2023-04-05T09:10:57.540Z,64.65
2023-04-05T09:11:57.509Z,64.03
2023-04-05T09:12:57.471Z,64.62
2023-04-05T09:13:57.429Z,63.28
2023-04-05T09:14:57.456Z,63.49
2023-04-05T09:15:57.358Z,64.18
2023-04-05T09:16:57.377Z,63.04
2023-04-05T09:17:57.364Z,62.84
2023-04-05T09:18:57.246Z,62.15
2023-04-05T09:19:57.215Z,62.97
2023-04-05T09:20:57.236Z,62.84
2023-04-05T09:21:57.128Z,61.70
2023-04-05T09:22:57.123Z,62.22
2023-04-05T09:23:57.077Z,62.22
2023-04-05T09:24:57.034Z,62.63
2023-04-05T09:25:57.002Z,62.71
2023-04-05T09:26:57.044Z,62.92
2023-04-05T09:27:56.998Z,61.57
2023-04-05T09:28:56.919Z,61.68
2023-04-05T09:29:56.914Z,61.98
2023-04-05T09:30:56.828Z,61.47
2023-04-05T09:31:56.780Z,61.78
2023-04-05T09:32:56.812Z,62.19
2023-04-05T09:33:56.705Z,60.75
2023-04-05T09:34:56.791Z,60.95
2023-04-05T09:35:56.700Z,59.92
2023-04-05T09:36:56.607Z,60.95
2023-04-05T09:37:56.572Z,61.85
2023-04-05T09:38:56.530Z,60.31
2023-04-05T09:39:56.728Z,60.21
2023-04-05T09:40:56.576Z,60.31
2023-04-05T09:41:56.430Z,60.10
2023-04-05T09:42:56.413Z,60.49
2023-04-05T09:43:56.363Z,60.28
2023-04-05T09:44:56.474Z,60.28
2023-04-05T09:45:56.291Z,60.49
2023-04-05T09:46:56.271Z,61.10
2023-04-05T09:47:56.238Z,60.79
2023-04-05T09:48:56.292Z,60.79
2023-04-05T09:49:56.142Z,60.17
2023-04-05T09:51:00.901Z,59.97
2023-04-05T09:51:56.212Z,60.89
2023-04-05T09:52:56.054Z,61.41
2023-04-05T09:53:56.011Z,60.87
2023-04-05T09:54:55.973Z,60.89
2023-04-05T09:55:55.989Z,60.87
2023-04-05T09:56:55.894Z,60.87
2023-04-05T09:57:55.841Z,61.21
2023-04-05T09:58:55.884Z,60.87
2023-04-05T09:59:55.777Z,60.46
2023-04-05T10:01:09.693Z,60.15
2023-04-05T10:01:55.790Z,59.50
2023-04-05T10:02:55.760Z,59.30
2023-04-05T10:03:55.700Z,58.89
2023-04-05T10:04:55.605Z,59.06
2023-04-05T10:05:55.574Z,58.75
2023-04-05T10:06:55.640Z,59.27
2023-04-05T10:07:55.490Z,58.86
2023-04-05T10:08:55.473Z,58.24
2023-04-05T10:09:55.412Z,58.65
2023-04-05T10:10:55.409Z,60.19
2023-04-05T10:11:55.542Z,60.37
2023-04-05T10:12:55.722Z,58.73
2023-04-05T10:13:55.427Z,60.27
2023-04-05T10:14:55.450Z,61.37
2023-04-05T10:15:55.228Z,59.22
2023-04-05T10:16:55.181Z,57.54
2023-04-05T10:17:55.309Z,57.36
2023-04-05T10:18:55.166Z,57.95
2023-04-05T10:19:55.065Z,57.23
2023-04-05T10:20:55.023Z,58.23
2023-04-05T10:21:54.992Z,58.75
2023-04-05T10:22:54.992Z,57.82
2023-04-05T10:23:54.927Z,56.90
2023-04-05T10:24:54.971Z,57.72
2023-04-05T10:25:54.849Z,57.00
2023-04-05T10:26:54.833Z,57.31
2023-04-05T10:27:54.783Z,57.95
2023-04-05T10:28:54.778Z,57.75
2023-04-05T10:29:54.795Z,56.95
2023-04-05T10:30:54.740Z,56.95
2023-04-05T10:31:54.689Z,56.95
2023-04-05T10:32:54.686Z,57.75
2023-04-05T10:33:54.576Z,57.31
2023-04-05T10:34:54.582Z,57.21
2023-04-05T10:35:54.600Z,57.08
2023-04-05T10:36:54.522Z,56.95
2023-04-05T10:37:54.444Z,56.23
2023-04-05T10:38:54.442Z,56.36
2023-04-05T10:39:54.371Z,56.36
2023-04-05T10:40:54.351Z,56.79
2023-04-05T10:41:54.356Z,57.00
2023-04-05T10:42:54.339Z,56.79
2023-04-05T10:43:54.247Z,56.67
2023-04-05T10:44:54.195Z,56.23
2023-04-05T10:45:54.224Z,54.97
2023-04-05T10:46:54.173Z,54.36
2023-04-05T10:47:54.283Z,54.23
2023-04-05T10:48:54.063Z,54.74
2023-04-05T10:49:54.019Z,54.82
2023-04-05T10:50:54.000Z,56.43
2023-04-05T10:51:53.983Z,55.30
2023-04-05T10:52:53.980Z,55.51
2023-04-05T10:53:53.903Z,54.61
2023-04-05T10:54:53.859Z,55.51
2023-04-05T10:55:53.825Z,55.02
2023-04-05T10:56:53.811Z,54.38
2023-04-05T10:57:53.843Z,54.41
2023-04-05T10:58:53.771Z,54.51
2023-04-05T10:59:53.729Z,54.18
2023-04-05T11:00:53.711Z,53.64
2023-04-05T11:01:53.719Z,52.95
2023-04-05T11:02:53.850Z,53.64
2023-04-05T11:03:53.654Z,54.77
2023-04-05T11:04:53.579Z,54.57
2023-04-05T11:05:53.552Z,54.25
2023-04-05T11:06:53.454Z,54.90
2023-04-05T11:07:53.490Z,55.21
2023-04-05T11:08:53.411Z,52.31
2023-04-05T11:09:53.365Z,53.08
2023-04-05T11:10:53.366Z,52.87
2023-04-05T11:11:53.299Z,52.47
2023-04-05T11:12:53.354Z,52.87
2023-04-05T11:13:53.252Z,52.82
2023-04-05T11:14:53.239Z,52.95
2023-04-05T11:15:53.172Z,53.97
2023-04-05T11:16:53.165Z,53.89
2023-04-05T11:17:53.150Z,54.59
2023-04-05T11:18:53.117Z,53.87
2023-04-05T11:19:53.063Z,53.77
2023-04-05T11:20:53.029Z,53.74
2023-04-05T11:21:52.973Z,53.23
2023-04-05T11:22:52.939Z,53.00
2023-04-05T11:23:52.907Z,52.64
2023-04-05T11:24:52.936Z,50.90
2023-04-05T11:25:52.866Z,49.26
2023-04-05T11:26:52.807Z,49.18
2023-04-05T11:27:52.765Z,50.13
2023-04-05T11:28:52.742Z,50.13
2023-04-05T11:29:52.704Z,51.26
2023-04-05T11:30:52.735Z,51.15
2023-04-05T11:31:52.646Z,51.03
2023-04-05T11:32:52.650Z,50.31
2023-04-05T11:33:56.228Z,50.93
2023-04-05T11:34:52.548Z,50.49
2023-04-05T11:35:52.552Z,51.04
2023-04-05T11:36:52.476Z,50.71
2023-04-05T11:37:52.446Z,50.78
2023-04-05T11:38:52.474Z,50.86
2023-04-05T11:39:52.398Z,50.41
2023-04-05T11:40:52.363Z,47.73
2023-04-05T11:41:52.329Z,47.34
2023-04-05T11:42:52.296Z,48.24
2023-04-05T11:43:52.263Z,47.45
2023-04-05T11:44:52.287Z,48.16
2023-04-05T11:45:52.189Z,47.60
2023-04-05T11:46:52.211Z,47.72
2023-04-05T11:47:52.145Z,49.09
2023-04-05T11:48:52.098Z,50.04
2023-04-05T11:49:52.081Z,50.78
2023-04-05T11:50:52.067Z,51.10
2023-04-05T11:51:52.015Z,51.95
2023-04-05T11:52:51.966Z,51.51
2023-04-05T11:53:51.921Z,51.21
2023-04-05T11:54:51.916Z,50.42
2023-04-05T11:55:51.874Z,51.03
2023-04-05T11:56:51.974Z,51.51
2023-04-05T11:57:51.800Z,50.70
2023-04-05T11:58:51.848Z,49.16
2023-04-05T11:59:51.727Z,48.34
2023-04-05T12:00:51.701Z,48.44
2023-04-05T12:01:51.668Z,48.22
2023-04-05T12:02:51.750Z,48.73
2023-04-05T12:03:51.667Z,48.11
2023-04-05T12:04:51.570Z,47.78
2023-04-05T12:05:51.540Z,47.99
2023-04-05T12:06:51.511Z,47.78
2023-04-05T12:07:51.478Z,47.81
2023-04-05T12:08:51.540Z,49.26
2023-04-05T12:09:51.406Z,49.80
2023-04-05T12:10:51.380Z,50.31
2023-04-05T12:11:51.358Z,51.34
2023-04-05T12:12:51.320Z,51.64
2023-04-05T12:13:51.277Z,51.01
2023-04-05T12:14:51.304Z,51.08
2023-04-05T12:15:51.247Z,50.26
2023-04-05T12:16:51.222Z,49.63
2023-04-05T12:17:51.159Z,49.11
2023-04-05T12:18:51.109Z,48.89
2023-04-05T12:19:51.078Z,48.99
2023-04-05T12:20:51.109Z,49.09
2023-04-05T12:21:51.017Z,49.81
2023-04-05T12:22:50.981Z,50.73
2023-04-05T12:23:50.945Z,49.68
2023-04-05T12:24:50.937Z,49.66
2023-04-05T12:25:50.883Z,49.89
2023-04-05T12:26:50.921Z,50.12
2023-04-05T12:27:51.082Z,50.63
2023-04-05T12:28:50.795Z,50.55
2023-04-05T12:29:50.797Z,50.98
2023-04-05T12:30:50.720Z,51.82
2023-04-05T12:31:50.729Z,51.10
2023-04-05T12:32:50.730Z,51.51
2023-04-05T12:33:50.631Z,51.06
2023-04-05T12:34:50.594Z,50.12
2023-04-05T12:35:50.577Z,49.91
2023-04-05T12:36:50.531Z,49.79
2023-04-05T12:37:50.516Z,49.76
2023-04-05T12:38:50.529Z,49.76
2023-04-05T12:39:50.445Z,49.63
2023-04-05T12:40:50.403Z,49.76
2023-04-05T12:41:50.426Z,50.40
2023-04-05T12:42:50.375Z,49.68
2023-04-05T12:43:50.307Z,49.60
2023-04-05T12:44:50.273Z,49.11
2023-04-05T12:45:50.392Z,49.98
2023-04-05T12:46:50.220Z,50.57
2023-04-05T12:47:50.284Z,50.24
2023-04-05T12:48:50.141Z,50.24
2023-04-05T12:49:50.126Z,50.80
2023-04-05T12:50:50.084Z,51.42
2023-04-05T12:51:50.064Z,51.31
2023-04-05T12:52:50.010Z,51.51
2023-04-05T12:53:50.046Z,50.90
2023-04-05T12:54:49.956Z,51.01
2023-04-05T12:55:49.917Z,50.80
2023-04-05T12:56:49.888Z,51.10